createdAt,value
2018-12-29T00:02:12.614Z,26.80
2018-12-29T00:04:41.727Z,28.13
2018-12-29T00:07:10.573Z,27.50
2018-12-29T00:09:39.429Z,26.80
2018-12-29T00:12:08.434Z,26.97
2018-12-29T00:14:37.638Z,28.37
2018-12-29T00:17:07.074Z,27.77
2018-12-29T00:19:35.939Z,27.93
2018-12-29T00:22:05.683Z,29.77
2018-12-29T00:24:34.881Z,28.60
2018-12-29T00:27:04.437Z,27.30
2018-12-29T00:29:34.125Z,25.93
2018-12-29T00:32:03.293Z,26.97
2018-12-29T00:34:32.140Z,27.00
2018-12-29T00:37:01.001Z,26.83
2018-12-29T00:39:30.148Z,26.90
2018-12-29T00:41:59.773Z,27.37
2018-12-29T00:44:28.689Z,26.87
2018-12-29T00:46:57.870Z,27.20
2018-12-29T00:49:27.321Z,26.27
2018-12-29T00:51:56.781Z,27.63
2018-12-29T00:54:26.526Z,25.87
2018-12-29T00:56:55.940Z,25.53
2018-12-29T00:59:25.386Z,26.90
2018-12-29T01:01:54.241Z,26.97
2018-12-29T01:04:23.374Z,26.13
2018-12-29T01:06:52.990Z,27.20
2018-12-29T01:09:22.503Z,26.20
2018-12-29T01:11:51.420Z,27.57
2018-12-29T01:14:20.950Z,26.67
2018-12-29T01:16:49.823Z,27.43
2018-12-29T01:19:18.670Z,27.93
2018-12-29T01:21:48.031Z,26.50
2018-12-29T01:24:17.137Z,27.03
2018-12-29T01:26:46.121Z,28.23
2018-12-29T01:29:15.430Z,26.17
2018-12-29T01:31:44.358Z,26.50
2018-12-29T01:34:13.571Z,26.27
2018-12-29T01:36:43.393Z,25.70
2018-12-29T01:39:12.678Z,26.13
2018-12-29T01:41:41.889Z,27.30
2018-12-29T01:44:11.085Z,25.97
2018-12-29T01:46:40.735Z,26.53
2018-12-29T01:49:09.880Z,26.00
2018-12-29T01:51:38.990Z,27.03
2018-12-29T01:54:08.314Z,25.20
2018-12-29T01:56:37.161Z,25.60
2018-12-29T01:59:06.484Z,27.13
2018-12-29T02:01:35.414Z,25.63
2018-12-29T02:04:04.289Z,26.80
2018-12-29T02:06:33.481Z,24.97
2018-12-29T02:09:02.992Z,25.27
2018-12-29T02:11:32.171Z,25.97
2018-12-29T02:14:01.361Z,27.23
2018-12-29T02:16:30.550Z,27.57
2018-12-29T02:18:59.757Z,26.53
2018-12-29T02:21:29.378Z,26.07
2018-12-29T02:23:58.577Z,26.50
2018-12-29T02:26:27.501Z,25.73
2018-12-29T02:28:57.075Z,25.23
2018-12-29T02:31:26.789Z,25.17
2018-12-29T02:33:55.734Z,25.60
2018-12-29T02:36:25.005Z,26.73
2018-12-29T02:38:54.488Z,26.47
2018-12-29T02:41:24.000Z,27.03
2018-12-29T02:43:53.198Z,26.10
2018-12-29T02:46:22.694Z,27.03
2018-12-29T02:48:52.077Z,25.60
2018-12-29T02:51:21.501Z,25.10
2018-12-29T02:53:50.406Z,25.70
2018-12-29T02:56:19.663Z,25.63
2018-12-29T02:58:48.511Z,26.80
2018-12-29T03:01:17.375Z,26.50
2018-12-29T03:03:46.305Z,25.70
2018-12-29T03:06:15.590Z,28.03
2018-12-29T03:08:44.816Z,27.10
2018-12-29T03:11:13.749Z,26.70
2018-12-29T03:13:43.013Z,27.07
2018-12-29T03:16:12.468Z,28.10
2018-12-29T03:18:41.571Z,26.57
2018-12-29T03:21:10.853Z,25.97
2018-12-29T03:23:40.367Z,27.07
2018-12-29T03:26:09.537Z,25.03
2018-12-29T03:28:38.629Z,24.13
2018-12-29T03:31:07.484Z,25.37
2018-12-29T03:33:36.654Z,25.20
2018-12-29T03:36:05.864Z,26.43
2018-12-29T03:38:34.865Z,27.13
2018-12-29T03:41:03.832Z,24.80
2018-12-29T03:43:33.028Z,26.87
2018-12-29T03:46:02.034Z,26.57
2018-12-29T03:48:31.223Z,25.67
2018-12-29T03:51:00.455Z,25.67
2018-12-29T03:53:29.702Z,26.97
2018-12-29T03:55:58.669Z,26.67
2018-12-29T03:58:28.135Z,25.63
2018-12-29T04:00:57.061Z,26.17
2018-12-29T04:03:26.260Z,25.83
2018-12-29T04:05:55.256Z,26.07
2018-12-29T04:08:24.198Z,25.93
2018-12-29T04:10:53.373Z,27.30
2018-12-29T04:13:22.817Z,26.57
2018-12-29T04:15:57.890Z,26.00
2018-12-29T04:18:22.246Z,24.60
2018-12-29T04:20:51.542Z,27.00
2018-12-29T04:23:20.759Z,26.27
2018-12-29T04:25:49.681Z,25.80
2018-12-29T04:28:18.823Z,27.23
2018-12-29T04:30:48.111Z,27.17
2018-12-29T04:33:17.340Z,26.93
2018-12-29T04:35:46.258Z,26.00
2018-12-29T04:38:15.709Z,26.43
2018-12-29T04:40:44.549Z,27.33
2018-12-29T04:43:13.737Z,27.63
2018-12-29T04:45:42.905Z,27.47
2018-12-29T04:48:12.028Z,26.73
2018-12-29T04:50:40.870Z,28.60
2018-12-29T04:53:09.868Z,27.73
2018-12-29T04:55:39.224Z,27.53
2018-12-29T04:58:08.069Z,26.60
2018-12-29T05:00:37.289Z,27.30
2018-12-29T05:03:06.402Z,27.87
2018-12-29T05:05:35.261Z,28.17
2018-12-29T05:08:04.176Z,27.33
2018-12-29T05:10:33.277Z,27.13
2018-12-29T05:13:02.442Z,26.13
2018-12-29T05:15:31.611Z,25.23
2018-12-29T05:18:00.456Z,25.40
2018-12-29T05:20:29.638Z,24.90
2018-12-29T05:22:58.544Z,27.70
2018-12-29T05:25:28.164Z,26.33
2018-12-29T05:27:57.002Z,26.27
2018-12-29T05:30:26.378Z,26.60
2018-12-29T05:32:55.450Z,26.00
2018-12-29T05:35:24.382Z,24.83
2018-12-29T05:37:53.228Z,25.90
2018-12-29T05:40:22.137Z,26.73
2018-12-29T05:42:51.389Z,25.83
2018-12-29T05:45:21.183Z,26.50
2018-12-29T05:47:50.348Z,25.10
2018-12-29T05:50:19.630Z,25.70
2018-12-29T05:52:48.469Z,25.67
2018-12-29T05:55:17.329Z,26.50
2018-12-29T05:57:46.181Z,25.07
2018-12-29T06:00:15.118Z,25.60
2018-12-29T06:02:43.978Z,26.57
2018-12-29T06:05:12.894Z,25.63
2018-12-29T06:07:42.089Z,26.63
2018-12-29T06:10:11.003Z,24.90
2018-12-29T06:12:40.012Z,27.00
2018-12-29T06:15:09.012Z,26.87
2018-12-29T06:17:38.761Z,26.43
2018-12-29T06:20:08.075Z,27.03
2018-12-29T06:22:37.260Z,26.47
2018-12-29T06:25:06.300Z,28.03
2018-12-29T06:27:35.689Z,27.33
2018-12-29T06:30:04.960Z,26.87
2018-12-29T06:32:33.893Z,26.53
2018-12-29T06:35:03.167Z,27.37
2018-12-29T06:37:32.354Z,26.57
2018-12-29T06:40:01.465Z,25.73
2018-12-29T06:42:30.893Z,27.57
2018-12-29T06:45:00.174Z,26.27
2018-12-29T06:47:29.374Z,27.53
2018-12-29T06:49:58.290Z,28.57
2018-12-29T06:52:27.437Z,27.40
2018-12-29T06:54:56.725Z,28.13
2018-12-29T06:57:25.844Z,28.57
2018-12-29T06:59:55.024Z,28.77
2018-12-29T07:02:24.855Z,28.17
2018-12-29T07:04:54.293Z,29.03
2018-12-29T07:07:23.773Z,28.97
2018-12-29T07:09:52.961Z,29.20
2018-12-29T07:12:22.560Z,29.23
2018-12-29T07:14:51.769Z,31.67
2018-12-29T07:17:20.613Z,29.83
2018-12-29T07:19:49.471Z,28.03
2018-12-29T07:22:21.372Z,28.47
2018-12-29T07:24:49.889Z,29.17
2018-12-29T07:27:19.078Z,27.43
2018-12-29T07:29:48.289Z,28.90
2018-12-29T07:32:19.190Z,31.57
2018-12-29T07:34:48.217Z,31.57
2018-12-29T07:37:17.409Z,30.80
2018-12-29T07:39:46.884Z,29.80
2018-12-29T07:42:16.584Z,25.57
2018-12-29T07:44:46.803Z,25.57
2018-12-29T07:47:15.896Z,26.77
2018-12-29T07:49:45.366Z,25.07
2018-12-29T07:52:14.620Z,25.30
2018-12-29T07:54:43.753Z,24.47
2018-12-29T07:57:13.160Z,24.23
2018-12-29T07:59:42.383Z,25.57
2018-12-29T08:02:11.272Z,26.73
2018-12-29T08:04:41.069Z,27.37
2018-12-29T08:07:10.492Z,32.93
2018-12-29T08:09:40.065Z,26.87
2018-12-29T08:12:09.314Z,28.13
2018-12-29T08:14:38.199Z,29.17
2018-12-29T08:17:07.392Z,27.80
2018-12-29T08:19:36.895Z,26.93
2018-12-29T08:22:06.073Z,25.63
2018-12-29T08:24:35.490Z,26.47
2018-12-29T08:27:04.985Z,27.00
2018-12-29T08:29:34.273Z,27.50
2018-12-29T08:32:03.132Z,25.90
2018-12-29T08:34:32.157Z,25.50
2018-12-29T08:37:01.373Z,27.33
2018-12-29T08:39:30.220Z,25.00
2018-12-29T08:41:59.661Z,31.00
2018-12-29T08:44:29.166Z,30.83
2018-12-29T08:47:04.411Z,31.07
2018-12-29T08:49:29.823Z,32.40
2018-12-29T08:51:59.007Z,29.30
2018-12-29T08:54:27.861Z,29.37
2018-12-29T08:56:57.627Z,28.43
2018-12-29T08:59:26.850Z,27.90
2018-12-29T09:01:55.693Z,27.30
2018-12-29T09:04:25.076Z,28.97
2018-12-29T09:06:54.868Z,27.13
2018-12-29T09:09:24.236Z,27.73
2018-12-29T09:11:53.085Z,29.07
2018-12-29T09:14:22.633Z,29.17
2018-12-29T09:16:51.829Z,28.67
2018-12-29T09:19:27.198Z,30.70
2018-12-29T09:21:52.284Z,35.30
2018-12-29T09:24:21.389Z,30.73
2018-12-29T09:26:50.892Z,30.17
2018-12-29T09:29:20.149Z,28.47
2018-12-29T09:31:49.505Z,28.40
2018-12-29T09:34:22.478Z,27.33
2018-12-29T09:36:51.366Z,26.67
2018-12-29T09:39:20.641Z,26.63
2018-12-29T09:41:51.409Z,27.67
2018-12-29T09:44:20.401Z,26.90
2018-12-29T09:46:49.599Z,25.70
2018-12-29T09:49:19.099Z,24.73
2018-12-29T09:51:48.697Z,23.87
2018-12-29T09:54:18.141Z,23.50
2018-12-29T09:56:47.810Z,25.00
2018-12-29T09:59:17.119Z,23.47
2018-12-29T10:01:46.026Z,23.70
2018-12-29T10:04:15.401Z,23.47
2018-12-29T10:06:44.516Z,22.03
2018-12-29T10:09:13.653Z,23.37
2018-12-29T10:11:43.116Z,19.00
2018-12-29T10:14:12.469Z,24.07
2018-12-29T10:16:41.989Z,23.10
2018-12-29T10:19:11.538Z,22.40
2018-12-29T10:21:41.569Z,23.90
2018-12-29T10:24:11.169Z,20.77
2018-12-29T10:26:40.459Z,20.23
2018-12-29T10:29:10.499Z,20.13
2018-12-29T10:31:40.821Z,20.10
2018-12-29T10:34:09.994Z,19.77
2018-12-29T10:36:42.057Z,20.13
2018-12-29T10:39:12.053Z,22.70
2018-12-29T10:41:41.697Z,19.70
2018-12-29T10:44:11.008Z,18.80
2018-12-29T10:46:40.399Z,18.80
2018-12-29T10:49:09.894Z,19.40
2018-12-29T10:51:39.626Z,19.00
2018-12-29T10:54:09.135Z,18.77
2018-12-29T10:56:38.086Z,19.40
2018-12-29T10:59:07.074Z,18.60
2018-12-29T11:01:36.618Z,18.87
2018-12-29T11:04:06.157Z,18.20
2018-12-29T11:06:34.985Z,18.07
2018-12-29T11:09:05.357Z,18.13
2018-12-29T11:11:34.948Z,18.70
2018-12-29T11:14:04.309Z,18.40
2018-12-29T11:16:33.990Z,18.73
2018-12-29T11:19:03.569Z,19.40
2018-12-29T11:21:32.972Z,18.17
2018-12-29T11:24:02.786Z,21.50
2018-12-29T11:26:31.898Z,22.20
2018-12-29T11:29:01.229Z,20.23
2018-12-29T11:31:30.575Z,21.40
2018-12-29T11:34:00.113Z,22.10
2018-12-29T11:36:29.676Z,19.47
2018-12-29T11:38:58.975Z,21.00
2018-12-29T11:41:28.186Z,20.90
2018-12-29T11:43:57.109Z,20.50
2018-12-29T11:46:26.597Z,20.33
2018-12-29T11:48:55.841Z,17.17
2018-12-29T11:51:25.376Z,18.70
2018-12-29T11:53:54.769Z,17.73
2018-12-29T11:56:23.781Z,16.47
2018-12-29T11:58:53.644Z,15.57
2018-12-29T12:01:23.005Z,13.53
2018-12-29T12:03:51.950Z,23.53
2018-12-29T12:06:21.530Z,19.60
2018-12-29T12:08:50.648Z,18.20
2018-12-29T12:11:19.536Z,25.43
2018-12-29T12:13:48.701Z,18.17
2018-12-29T12:16:17.548Z,18.07
2018-12-29T12:18:46.716Z,19.13
2018-12-29T12:21:15.881Z,15.10
2018-12-29T12:23:44.742Z,11.90
2018-12-29T12:26:14.119Z,12.70
2018-12-29T12:28:43.595Z,11.13
2018-12-29T12:31:12.801Z,11.53
2018-12-29T12:33:41.649Z,11.10
2018-12-29T12:36:11.076Z,11.07
2018-12-29T12:38:40.001Z,11.03
2018-12-29T12:41:08.858Z,10.77
2018-12-29T12:43:39.112Z,11.20
2018-12-29T12:46:08.423Z,11.63
2018-12-29T12:48:37.908Z,10.90
2018-12-29T12:51:07.467Z,11.00
2018-12-29T12:53:37.241Z,10.03
2018-12-29T12:56:06.831Z,10.60
2018-12-29T12:58:36.043Z,11.10
2018-12-29T13:01:05.965Z,10.47
2018-12-29T13:03:35.556Z,10.17
2018-12-29T13:06:04.494Z,10.13
2018-12-29T13:08:33.584Z,9.83
2018-12-29T13:11:02.864Z,10.77
2018-12-29T13:13:32.861Z,10.57
2018-12-29T13:16:01.874Z,11.13
2018-12-29T13:18:30.953Z,10.30
2018-12-29T13:21:00.513Z,10.07
2018-12-29T13:23:29.736Z,10.07
2018-12-29T13:25:58.891Z,10.50
2018-12-29T13:28:28.158Z,12.53
2018-12-29T13:30:57.477Z,10.53
2018-12-29T13:33:26.886Z,11.10
2018-12-29T13:35:55.745Z,10.97
2018-12-29T13:38:24.930Z,10.90
2018-12-29T13:40:53.797Z,9.03
2018-12-29T13:43:22.738Z,8.73
2018-12-29T13:45:51.911Z,9.17
2018-12-29T13:48:21.608Z,9.03
2018-12-29T13:50:50.898Z,7.47
2018-12-29T13:53:19.764Z,8.67
2018-12-29T13:55:48.604Z,8.10
2018-12-29T13:58:17.453Z,8.20
2018-12-29T14:00:46.316Z,8.63
2018-12-29T14:03:15.546Z,7.87
2018-12-29T14:05:45.118Z,6.93
2018-12-29T14:08:14.156Z,8.00
2018-12-29T14:10:43.071Z,6.40
2018-12-29T14:13:11.928Z,6.77
2018-12-29T14:15:41.068Z,7.60
2018-12-29T14:18:10.285Z,7.77
2018-12-29T14:20:39.128Z,7.57
2018-12-29T14:23:08.360Z,7.67
2018-12-29T14:25:37.819Z,7.47
2018-12-29T14:28:06.654Z,7.00
2018-12-29T14:30:35.589Z,5.93
2018-12-29T14:33:04.431Z,7.60
2018-12-29T14:35:33.360Z,7.30
2018-12-29T14:38:03.108Z,6.77
2018-12-29T14:40:32.281Z,6.50
2018-12-29T14:43:01.765Z,7.60
2018-12-29T14:45:30.874Z,7.03
2018-12-29T14:48:00.065Z,7.03
2018-12-29T14:50:28.922Z,7.23
2018-12-29T14:52:58.034Z,6.60
2018-12-29T14:55:27.145Z,8.00
2018-12-29T14:57:56.069Z,7.20
2018-12-29T15:00:25.329Z,7.20
2018-12-29T15:02:54.265Z,9.13
2018-12-29T15:05:23.971Z,9.47
2018-12-29T15:07:53.120Z,8.33
2018-12-29T15:10:22.404Z,10.77
2018-12-29T15:12:51.639Z,8.60
2018-12-29T15:15:20.838Z,13.33
2018-12-29T15:17:50.016Z,12.93
2018-12-29T15:20:19.349Z,41.97
2018-12-29T15:22:48.652Z,10.93
2018-12-29T15:25:17.832Z,31.77
2018-12-29T15:27:47.557Z,17.40
2018-12-29T15:30:17.156Z,9.47
2018-12-29T15:32:46.442Z,11.60
2018-12-29T15:35:15.367Z,23.90
2018-12-29T15:37:44.478Z,14.43
2018-12-29T15:40:14.262Z,20.57
2018-12-29T15:42:45.091Z,12.87
2018-12-29T15:45:14.211Z,12.13
2018-12-29T15:47:43.489Z,14.33
2018-12-29T15:50:12.803Z,12.43
2018-12-29T15:52:42.017Z,11.80
2018-12-29T15:55:11.165Z,15.80
2018-12-29T15:57:40.622Z,21.33
2018-12-29T16:00:09.952Z,14.60
2018-12-29T16:02:39.168Z,10.53
2018-12-29T16:05:08.277Z,13.90
2018-12-29T16:07:38.008Z,10.37
2018-12-29T16:10:07.523Z,11.43
2018-12-29T16:12:36.781Z,10.43
2018-12-29T16:15:05.937Z,10.53
2018-12-29T16:17:35.135Z,11.87
2018-12-29T16:20:04.224Z,15.73
2018-12-29T16:22:33.414Z,13.37
2018-12-29T16:25:02.684Z,11.53
2018-12-29T16:27:32.304Z,18.70
2018-12-29T16:30:01.504Z,16.13
2018-12-29T16:32:31.357Z,18.67
2018-12-29T16:35:00.522Z,11.50
2018-12-29T16:37:30.032Z,10.53
2018-12-29T16:39:59.541Z,10.17
2018-12-29T16:42:28.939Z,9.87
2018-12-29T16:44:58.425Z,9.63
2018-12-29T16:47:27.269Z,24.30
2018-12-29T16:49:56.464Z,12.70
2018-12-29T16:52:25.840Z,12.60
2018-12-29T16:54:55.351Z,11.97
2018-12-29T16:57:24.596Z,10.47
2018-12-29T16:59:53.744Z,10.60
2018-12-29T17:02:23.665Z,11.00
2018-12-29T17:04:52.530Z,10.83
2018-12-29T17:07:21.734Z,10.50
2018-12-29T17:09:51.195Z,9.30
2018-12-29T17:12:20.664Z,10.07
2018-12-29T17:14:49.857Z,11.17
2018-12-29T17:17:19.043Z,12.37
2018-12-29T17:19:47.905Z,11.73
2018-12-29T17:22:17.045Z,13.17
2018-12-29T17:24:46.650Z,12.63
2018-12-29T17:27:15.836Z,14.47
2018-12-29T17:29:45.258Z,11.40
2018-12-29T17:32:14.099Z,10.50
2018-12-29T17:34:43.552Z,10.87
2018-12-29T17:37:12.648Z,10.93
2018-12-29T17:39:41.718Z,14.40
2018-12-29T17:42:10.946Z,13.07
2018-12-29T17:44:39.974Z,11.27
2018-12-29T17:47:09.305Z,10.40
2018-12-29T17:49:38.441Z,10.57
2018-12-29T17:52:07.865Z,11.47
2018-12-29T17:54:37.145Z,11.37
2018-12-29T17:57:06.613Z,10.73
2018-12-29T17:59:35.457Z,13.47
2018-12-29T18:02:04.641Z,12.10
2018-12-29T18:04:33.768Z,11.97
2018-12-29T18:07:03.053Z,12.97
2018-12-29T18:09:32.234Z,12.97
2018-12-29T18:12:01.475Z,12.13
2018-12-29T18:14:30.327Z,12.70
2018-12-29T18:16:59.849Z,13.73
2018-12-29T18:19:30.795Z,19.10
2018-12-29T18:22:00.099Z,13.57
2018-12-29T18:24:29.808Z,13.33
2018-12-29T18:26:58.922Z,12.40
2018-12-29T18:29:28.132Z,13.87
2018-12-29T18:31:57.481Z,12.73
2018-12-29T18:34:26.713Z,12.20
2018-12-29T18:36:56.277Z,10.83
2018-12-29T18:39:25.872Z,8.67
2018-12-29T18:41:55.413Z,7.67
2018-12-29T18:44:25.320Z,7.73
2018-12-29T18:46:54.517Z,6.90
2018-12-29T18:49:23.369Z,7.77
2018-12-29T18:51:52.813Z,8.60
2018-12-29T18:54:22.009Z,8.13
2018-12-29T18:56:51.735Z,6.80
2018-12-29T18:59:21.040Z,8.07
2018-12-29T19:01:57.357Z,6.93
2018-12-29T19:04:20.987Z,7.30
2018-12-29T19:06:49.832Z,6.07
2018-12-29T19:09:18.943Z,5.90
2018-12-29T19:11:48.452Z,6.13
2018-12-29T19:14:18.016Z,6.63
2018-12-29T19:16:47.268Z,6.30
2018-12-29T19:19:16.119Z,5.40
2018-12-29T19:21:45.451Z,4.90
2018-12-29T19:24:14.943Z,5.03
2018-12-29T19:26:44.264Z,5.60
2018-12-29T19:29:13.174Z,4.97
2018-12-29T19:31:44.818Z,5.50
2018-12-29T19:34:13.265Z,5.77
2018-12-29T19:36:42.362Z,4.30
2018-12-29T19:39:11.748Z,4.33
2018-12-29T19:41:46.549Z,4.53
2018-12-29T19:44:11.213Z,4.67
2018-12-29T19:46:40.820Z,5.60
2018-12-29T19:49:09.665Z,4.87
2018-12-29T19:51:38.522Z,5.33
2018-12-29T19:54:07.430Z,5.00
2018-12-29T19:56:36.796Z,4.93
2018-12-29T19:59:05.991Z,5.67
2018-12-29T20:01:35.207Z,5.47
2018-12-29T20:04:04.596Z,5.03
2018-12-29T20:06:33.703Z,4.60
2018-12-29T20:09:03.195Z,4.17
2018-12-29T20:11:32.397Z,4.70
2018-12-29T20:14:01.495Z,4.60
2018-12-29T20:16:30.993Z,5.00
2018-12-29T20:18:59.903Z,4.70
2018-12-29T20:21:29.445Z,5.97
2018-12-29T20:23:58.652Z,5.20
2018-12-29T20:26:28.427Z,5.27
2018-12-29T20:28:57.516Z,7.37
2018-12-29T20:31:27.323Z,5.47
2018-12-29T20:33:56.566Z,3.90
2018-12-29T20:36:25.717Z,4.10
2018-12-29T20:38:54.890Z,4.53
2018-12-29T20:41:24.426Z,4.30
2018-12-29T20:43:53.517Z,4.33
2018-12-29T20:46:23.023Z,3.00
2018-12-29T20:48:52.239Z,3.40
2018-12-29T20:51:21.096Z,3.47
2018-12-29T20:53:50.647Z,4.10
2018-12-29T20:56:19.554Z,3.63
2018-12-29T20:58:49.011Z,3.50
2018-12-29T21:01:17.924Z,3.60
2018-12-29T21:03:46.791Z,4.10
2018-12-29T21:06:15.630Z,4.33
2018-12-29T21:08:45.092Z,3.50
2018-12-29T21:11:14.749Z,4.53
2018-12-29T21:13:44.022Z,4.30
2018-12-29T21:16:12.907Z,4.63
2018-12-29T21:18:41.815Z,5.10
2018-12-29T21:21:11.015Z,5.10
2018-12-29T21:23:39.907Z,4.97
2018-12-29T21:26:09.430Z,5.00
2018-12-29T21:28:38.282Z,5.77
2018-12-29T21:31:07.687Z,5.93
2018-12-29T21:33:36.897Z,6.27
2018-12-29T21:36:06.065Z,6.20
2018-12-29T21:38:35.031Z,6.30
2018-12-29T21:41:04.273Z,6.63
2018-12-29T21:43:33.099Z,6.00
2018-12-29T21:46:02.677Z,7.00
2018-12-29T21:48:32.471Z,7.00
2018-12-29T21:51:01.940Z,7.50
2018-12-29T21:53:31.096Z,7.43
2018-12-29T21:56:00.476Z,7.30
2018-12-29T21:58:29.996Z,7.30
2018-12-29T22:00:59.708Z,7.60
2018-12-29T22:03:28.568Z,8.07
2018-12-29T22:05:57.751Z,7.63
2018-12-29T22:08:26.872Z,8.17
2018-12-29T22:10:56.111Z,6.40
2018-12-29T22:13:26.123Z,7.67
2018-12-29T22:15:55.617Z,8.50
2018-12-29T22:18:25.015Z,7.87
2018-12-29T22:20:54.962Z,7.83
2018-12-29T22:23:24.140Z,7.93
2018-12-29T22:25:53.607Z,8.20
2018-12-29T22:28:22.952Z,9.10
2018-12-29T22:30:52.052Z,8.27
2018-12-29T22:33:21.143Z,9.20
2018-12-29T22:35:50.259Z,8.53
2018-12-29T22:38:19.896Z,8.33
2018-12-29T22:40:49.453Z,8.00
2018-12-29T22:43:18.625Z,7.47
2018-12-29T22:45:47.854Z,7.70
2018-12-29T22:48:17.375Z,8.10
2018-12-29T22:50:46.296Z,8.47
2018-12-29T22:53:15.444Z,8.50
2018-12-29T22:55:45.051Z,9.03
2018-12-29T22:58:14.297Z,8.07
2018-12-29T23:00:45.120Z,9.07
2018-12-29T23:03:16.134Z,7.77
2018-12-29T23:05:45.314Z,8.57
2018-12-29T23:08:14.724Z,8.27
2018-12-29T23:10:43.642Z,9.20
2018-12-29T23:13:13.125Z,8.73
2018-12-29T23:15:42.032Z,8.33
2018-12-29T23:18:11.856Z,8.97
2018-12-29T23:20:40.875Z,7.87
2018-12-29T23:23:12.286Z,8.40
2018-12-29T23:25:41.126Z,9.63
2018-12-29T23:28:10.054Z,8.37
2018-12-29T23:30:39.264Z,8.30
2018-12-29T23:33:08.528Z,8.20
2018-12-29T23:35:37.455Z,9.07
2018-12-29T23:38:07.055Z,9.50
2018-12-29T23:40:36.385Z,8.30
2018-12-29T23:43:05.877Z,8.47
2018-12-29T23:45:35.057Z,8.60
2018-12-29T23:48:03.977Z,8.93
2018-12-29T23:50:33.178Z,8.30
2018-12-29T23:53:02.874Z,8.80
2018-12-29T23:55:32.111Z,8.40
2018-12-29T23:58:01.093Z,9.27
